RYR58HM LATI-LIRP
Flight info
| Callsign | RYR58HM |
|---|---|
| Flight time | 0h 43m |
| Altitude | 38000 |
| Route | DIRES DCT EBELA DCT KOFER DCT KATTI DCT KUGIX Y662 AKUTO L12 MAREL |
| Aircraft | B738/M-SDE2E3FGHIRWXY/LB1 |
Departure
| Time | 2026-05-07 20:49 |
|---|---|
| Airport | Tirana International Airport Mother Teresa (LATI) |
Arrival
| Time | 2026-05-07 21:32 |
|---|---|
| Airport | Pisa International Airport (LIRP) |
| Time | Latitude | Longitude | Altitude | Speed | Heading |
|---|---|---|---|---|---|
| 2026-05-07 20:32 | 41.41871 | 19.71529 | 123 ft | 0 kts | 264° |
| 2026-05-07 20:40 | 41.41872 | 19.71540 | 118 ft | 4 kts | 272° |
| 2026-05-07 20:40 | 41.41864 | 19.71571 | 122 ft | 4 kts | 317° |
| 2026-05-07 20:40 | 41.41842 | 19.71589 | 120 ft | 4 kts | 341° |
| 2026-05-07 20:40 | 41.41816 | 19.71598 | 119 ft | 4 kts | 352° |
| 2026-05-07 20:41 | 41.41802 | 19.71600 | 119 ft | 0 kts | 354° |
| 2026-05-07 20:44 | 41.41807 | 19.71600 | 119 ft | 3 kts | 354° |
| 2026-05-07 20:44 | 41.41860 | 19.71593 | 118 ft | 11 kts | 354° |
| 2026-05-07 20:44 | 41.41937 | 19.71582 | 122 ft | 11 kts | 354° |
| 2026-05-07 20:44 | 41.42015 | 19.71572 | 120 ft | 11 kts | 354° |
| 2026-05-07 20:45 | 41.42100 | 19.71560 | 120 ft | 15 kts | 354° |
| 2026-05-07 20:45 | 41.42223 | 19.71543 | 117 ft | 20 kts | 354° |
| 2026-05-07 20:45 | 41.42361 | 19.71525 | 117 ft | 20 kts | 355° |
| 2026-05-07 20:45 | 41.42495 | 19.71505 | 117 ft | 19 kts | 355° |
| 2026-05-07 20:46 | 41.42606 | 19.71491 | 114 ft | 9 kts | 354° |
| 2026-05-07 20:46 | 41.42659 | 19.71539 | 115 ft | 13 kts | 76° |
| 2026-05-07 20:46 | 41.42672 | 19.71663 | 117 ft | 13 kts | 84° |
| 2026-05-07 20:46 | 41.42681 | 19.71771 | 114 ft | 8 kts | 84° |
| 2026-05-07 20:47 | 41.42688 | 19.71846 | 117 ft | 8 kts | 83° |
| 2026-05-07 20:47 | 41.42659 | 19.71899 | 116 ft | 8 kts | 173° |
| 2026-05-07 20:47 | 41.42625 | 19.71902 | 118 ft | 0 kts | 174° |
| 2026-05-07 20:48 | 41.42621 | 19.71903 | 114 ft | 7 kts | 174° |
| 2026-05-07 20:48 | 41.42329 | 19.71942 | 117 ft | 77 kts | 174° |
| 2026-05-07 20:48 | 41.41584 | 19.72042 | 124 ft | 136 kts | 174° |
| 2026-05-07 20:48 | 41.40516 | 19.72180 | 318 ft | 167 kts | 174° |
| 2026-05-07 20:49 | 41.39345 | 19.72331 | 977 ft | 174 kts | 174° |
| 2026-05-07 20:49 | 41.38112 | 19.72494 | 1595 ft | 179 kts | 173° |
| 2026-05-07 20:49 | 41.36863 | 19.72665 | 2301 ft | 180 kts | 173° |
| 2026-05-07 20:49 | 41.35542 | 19.72847 | 2722 ft | 205 kts | 173° |
| 2026-05-07 20:50 | 41.34043 | 19.73049 | 2946 ft | 229 kts | 173° |
| 2026-05-07 20:50 | 41.32373 | 19.73271 | 3160 ft | 252 kts | 173° |
| 2026-05-07 20:50 | 41.30587 | 19.73507 | 3818 ft | 260 kts | 173° |
| 2026-05-07 20:50 | 41.28824 | 19.73738 | 4801 ft | 254 kts | 174° |
| 2026-05-07 20:51 | 41.27076 | 19.73965 | 5738 ft | 252 kts | 175° |
| 2026-05-07 20:51 | 41.25345 | 19.73717 | 6560 ft | 254 kts | 200° |
| 2026-05-07 20:51 | 41.23864 | 19.72401 | 7285 ft | 262 kts | 223° |
| 2026-05-07 20:51 | 41.22841 | 19.70361 | 7992 ft | 270 kts | 241° |
| 2026-05-07 20:52 | 41.22064 | 19.68066 | 8709 ft | 274 kts | 243° |
| 2026-05-07 20:52 | 41.21301 | 19.65728 | 9456 ft | 278 kts | 244° |
| 2026-05-07 20:52 | 41.20532 | 19.63362 | 10192 ft | 281 kts | 244° |
| 2026-05-07 20:52 | 41.19727 | 19.60904 | 10457 ft | 302 kts | 244° |
| 2026-05-07 20:53 | 41.18852 | 19.58253 | 10624 ft | 324 kts | 244° |
| 2026-05-07 20:53 | 41.17916 | 19.55426 | 10791 ft | 345 kts | 244° |
| 2026-05-07 20:53 | 41.16921 | 19.52434 | 10926 ft | 363 kts | 244° |
| 2026-05-07 20:53 | 41.15879 | 19.49306 | 11206 ft | 376 kts | 244° |
| 2026-05-07 20:54 | 41.14814 | 19.46114 | 11775 ft | 379 kts | 244° |
| 2026-05-07 20:54 | 41.13746 | 19.42918 | 12399 ft | 381 kts | 244° |
| 2026-05-07 20:54 | 41.12666 | 19.39692 | 12995 ft | 384 kts | 244° |
| 2026-05-07 20:54 | 41.11591 | 19.36488 | 13618 ft | 386 kts | 244° |
| 2026-05-07 20:55 | 41.10495 | 19.33226 | 14219 ft | 388 kts | 245° |
| 2026-05-07 20:55 | 41.09391 | 19.29945 | 14757 ft | 391 kts | 245° |
| 2026-05-07 20:55 | 41.08279 | 19.26645 | 15333 ft | 394 kts | 245° |
| 2026-05-07 20:55 | 41.07237 | 19.23267 | 15887 ft | 398 kts | 253° |
| 2026-05-07 20:56 | 41.06974 | 19.19602 | 16422 ft | 405 kts | 272° |
| 2026-05-07 20:56 | 41.07546 | 19.15918 | 17016 ft | 411 kts | 287° |
| 2026-05-07 20:56 | 41.08880 | 19.12524 | 17573 ft | 418 kts | 300° |
| 2026-05-07 20:56 | 41.10469 | 19.09274 | 18087 ft | 422 kts | 300° |
| 2026-05-07 20:57 | 41.12084 | 19.06012 | 18559 ft | 424 kts | 300° |
| 2026-05-07 20:57 | 41.13689 | 19.02723 | 19021 ft | 426 kts | 300° |
| 2026-05-07 20:57 | 41.15287 | 18.99387 | 19483 ft | 428 kts | 300° |
| 2026-05-07 20:57 | 41.16875 | 18.96042 | 19938 ft | 430 kts | 300° |
| 2026-05-07 20:58 | 41.18730 | 18.92973 | 20368 ft | 437 kts | 314° |
| 2026-05-07 20:58 | 41.21218 | 18.90605 | 20827 ft | 444 kts | 329° |
| 2026-05-07 20:58 | 41.24104 | 18.89087 | 21272 ft | 450 kts | 342° |
| 2026-05-07 20:58 | 41.27157 | 18.88101 | 21711 ft | 453 kts | 344° |
| 2026-05-07 20:59 | 41.30232 | 18.87149 | 22112 ft | 455 kts | 344° |
| 2026-05-07 20:59 | 41.33326 | 18.86186 | 22496 ft | 457 kts | 344° |
| 2026-05-07 20:59 | 41.35380 | 18.85536 | 22744 ft | 458 kts | 343° |
| 2026-05-07 20:59 | 41.39499 | 18.84206 | 23275 ft | 460 kts | 343° |
| 2026-05-07 21:00 | 41.42612 | 18.83181 | 23637 ft | 462 kts | 343° |
| 2026-05-07 21:00 | 41.45744 | 18.82141 | 23921 ft | 464 kts | 343° |
| 2026-05-07 21:00 | 41.47870 | 18.81433 | 24075 ft | 467 kts | 343° |
| 2026-05-07 21:00 | 41.50995 | 18.80390 | 24332 ft | 469 kts | 343° |
| 2026-05-07 21:01 | 41.54212 | 18.79316 | 24621 ft | 471 kts | 343° |
| 2026-05-07 21:01 | 41.57356 | 18.78266 | 24906 ft | 473 kts | 343° |
| 2026-05-07 21:01 | 41.60551 | 18.77199 | 25269 ft | 472 kts | 343° |
| 2026-05-07 21:01 | 41.63740 | 18.76133 | 25619 ft | 473 kts | 342° |
| 2026-05-07 21:02 | 41.66940 | 18.75062 | 25851 ft | 475 kts | 342° |
| 2026-05-07 21:02 | 41.70158 | 18.73984 | 26088 ft | 478 kts | 342° |
| 2026-05-07 21:02 | 41.73389 | 18.72900 | 26330 ft | 480 kts | 342° |
| 2026-05-07 21:02 | 41.76624 | 18.71814 | 26562 ft | 481 kts | 342° |
| 2026-05-07 21:03 | 41.79879 | 18.70721 | 26829 ft | 481 kts | 342° |
| 2026-05-07 21:03 | 41.83124 | 18.69630 | 27152 ft | 480 kts | 342° |
| 2026-05-07 21:03 | 41.86352 | 18.68541 | 27503 ft | 478 kts | 341° |
| 2026-05-07 21:03 | 41.89419 | 18.66926 | 27810 ft | 468 kts | 323° |
| 2026-05-07 21:04 | 41.91881 | 18.64192 | 28272 ft | 454 kts | 308° |
| 2026-05-07 21:04 | 41.93780 | 18.60855 | 28737 ft | 445 kts | 297° |
| 2026-05-07 21:04 | 41.95034 | 18.57103 | 29115 ft | 438 kts | 286° |
| 2026-05-07 21:04 | 41.95962 | 18.53211 | 29510 ft | 436 kts | 284° |
| 2026-05-07 21:05 | 41.97907 | 18.44533 | 30376 ft | 432 kts | 284° |
| 2026-05-07 21:05 | 42.01395 | 18.29162 | 31636 ft | 427 kts | 284° |
| 2026-05-07 21:05 | 42.04896 | 18.14034 | 33033 ft | 419 kts | 284° |
| 2026-05-07 21:05 | 42.08323 | 17.99127 | 34216 ft | 414 kts | 283° |
| 2026-05-07 21:06 | 42.11645 | 17.84564 | 35587 ft | 398 kts | 283° |
| 2026-05-07 21:06 | 42.14825 | 17.70519 | 36766 ft | 389 kts | 283° |
| 2026-05-07 21:06 | 42.17956 | 17.56568 | 37236 ft | 394 kts | 282° |
| 2026-05-07 21:06 | 42.21078 | 17.42628 | 38144 ft | 386 kts | 282° |
| 2026-05-07 21:07 | 42.24195 | 17.28572 | 38096 ft | 394 kts | 282° |
| 2026-05-07 21:07 | 42.30470 | 17.00059 | 38020 ft | 395 kts | 282° |
| 2026-05-07 21:08 | 42.36603 | 16.71812 | 38022 ft | 386 kts | 282° |
| 2026-05-07 21:08 | 42.42574 | 16.43920 | 38051 ft | 388 kts | 281° |
| 2026-05-07 21:09 | 42.48623 | 16.15329 | 38057 ft | 403 kts | 282° |
| 2026-05-07 21:09 | 42.55377 | 15.86036 | 38005 ft | 407 kts | 285° |
| 2026-05-07 21:10 | 42.62459 | 15.57296 | 38000 ft | 399 kts | 284° |
| 2026-05-07 21:10 | 42.69259 | 15.29010 | 38003 ft | 390 kts | 283° |
| 2026-05-07 21:11 | 42.75979 | 15.00716 | 38039 ft | 397 kts | 283° |
| 2026-05-07 21:11 | 42.86227 | 14.56906 | 38009 ft | 408 kts | 283° |
| 2026-05-07 21:12 | 42.92990 | 14.27519 | 38000 ft | 402 kts | 283° |
| 2026-05-07 21:12 | 42.99497 | 13.98861 | 38016 ft | 393 kts | 282° |
| 2026-05-07 21:13 | 43.05908 | 13.70229 | 38051 ft | 398 kts | 282° |
| 2026-05-07 21:13 | 43.12411 | 13.40813 | 38037 ft | 408 kts | 282° |
| 2026-05-07 21:14 | 43.18936 | 13.10888 | 38025 ft | 411 kts | 282° |
| 2026-05-07 21:14 | 43.25373 | 12.80965 | 37984 ft | 406 kts | 281° |
| 2026-05-07 21:15 | 43.31636 | 12.51403 | 37998 ft | 401 kts | 281° |
| 2026-05-07 21:15 | 43.37762 | 12.22075 | 38043 ft | 397 kts | 281° |
| 2026-05-07 21:16 | 43.43763 | 11.92928 | 37761 ft | 398 kts | 281° |
| 2026-05-07 21:16 | 43.45176 | 11.86008 | 36512 ft | 398 kts | 281° |
| 2026-05-07 21:16 | 43.45911 | 11.82394 | 35905 ft | 398 kts | 281° |
| 2026-05-07 21:17 | 43.46658 | 11.78716 | 35125 ft | 401 kts | 280° |
| 2026-05-07 21:17 | 43.47410 | 11.75007 | 34468 ft | 402 kts | 280° |
| 2026-05-07 21:17 | 43.48161 | 11.71300 | 33735 ft | 402 kts | 280° |
| 2026-05-07 21:17 | 43.48913 | 11.67576 | 32984 ft | 403 kts | 281° |
| 2026-05-07 21:18 | 43.49660 | 11.63872 | 32268 ft | 403 kts | 281° |
| 2026-05-07 21:18 | 43.50412 | 11.60142 | 31531 ft | 404 kts | 281° |
| 2026-05-07 21:18 | 43.51161 | 11.56412 | 30781 ft | 405 kts | 281° |
| 2026-05-07 21:18 | 43.51914 | 11.52658 | 30013 ft | 406 kts | 282° |
| 2026-05-07 21:19 | 43.52669 | 11.48890 | 29112 ft | 407 kts | 282° |
| 2026-05-07 21:19 | 43.53414 | 11.45165 | 28303 ft | 410 kts | 283° |
| 2026-05-07 21:19 | 43.54165 | 11.41404 | 27845 ft | 403 kts | 282° |
| 2026-05-07 21:19 | 43.54853 | 11.37739 | 27165 ft | 398 kts | 278° |
| 2026-05-07 21:20 | 43.55199 | 11.33939 | 26427 ft | 397 kts | 270° |
| 2026-05-07 21:20 | 43.55172 | 11.30175 | 25897 ft | 389 kts | 267° |
| 2026-05-07 21:20 | 43.55091 | 11.26451 | 24716 ft | 391 kts | 267° |
| 2026-05-07 21:20 | 43.55209 | 11.22688 | 23428 ft | 399 kts | 278° |
| 2026-05-07 21:21 | 43.55919 | 11.18956 | 22024 ft | 405 kts | 287° |
| 2026-05-07 21:21 | 43.57016 | 11.15376 | 20692 ft | 408 kts | 295° |
| 2026-05-07 21:21 | 43.58537 | 11.12036 | 19441 ft | 411 kts | 302° |
| 2026-05-07 21:21 | 43.60149 | 11.08784 | 18225 ft | 410 kts | 302° |
| 2026-05-07 21:22 | 43.61759 | 11.05530 | 16907 ft | 409 kts | 302° |
| 2026-05-07 21:22 | 43.63353 | 11.02285 | 15679 ft | 406 kts | 302° |
| 2026-05-07 21:22 | 43.64922 | 10.99068 | 14524 ft | 403 kts | 303° |
| 2026-05-07 21:22 | 43.66457 | 10.95907 | 13385 ft | 400 kts | 303° |
| 2026-05-07 21:23 | 43.67998 | 10.92723 | 12192 ft | 396 kts | 303° |
| 2026-05-07 21:23 | 43.69518 | 10.89575 | 11076 ft | 391 kts | 303° |
| 2026-05-07 21:23 | 43.71012 | 10.86478 | 10040 ft | 385 kts | 303° |
| 2026-05-07 21:23 | 43.72483 | 10.83426 | 9013 ft | 378 kts | 303° |
| 2026-05-07 21:24 | 43.73928 | 10.80424 | 7991 ft | 371 kts | 303° |
| 2026-05-07 21:24 | 43.75346 | 10.77474 | 6960 ft | 366 kts | 303° |
| 2026-05-07 21:24 | 43.76747 | 10.74561 | 5913 ft | 361 kts | 303° |
| 2026-05-07 21:24 | 43.78113 | 10.71715 | 5382 ft | 344 kts | 303° |
| 2026-05-07 21:25 | 43.79386 | 10.69064 | 5239 ft | 318 kts | 303° |
| 2026-05-07 21:25 | 43.80685 | 10.66736 | 5176 ft | 293 kts | 312° |
| 2026-05-07 21:25 | 43.82047 | 10.64780 | 5151 ft | 271 kts | 314° |
| 2026-05-07 21:25 | 43.83317 | 10.62980 | 5125 ft | 252 kts | 314° |
| 2026-05-07 21:26 | 43.84486 | 10.61294 | 5091 ft | 234 kts | 313° |
| 2026-05-07 21:26 | 43.85566 | 10.59719 | 4995 ft | 218 kts | 313° |
| 2026-05-07 21:26 | 43.86560 | 10.58199 | 4749 ft | 207 kts | 303° |
| 2026-05-07 21:26 | 43.86901 | 10.56370 | 4509 ft | 193 kts | 262° |
| 2026-05-07 21:27 | 43.86485 | 10.54696 | 4324 ft | 185 kts | 238° |
| 2026-05-07 21:27 | 43.85727 | 10.53279 | 4138 ft | 181 kts | 231° |
| 2026-05-07 21:27 | 43.84945 | 10.51954 | 3930 ft | 173 kts | 230° |
| 2026-05-07 21:27 | 43.84210 | 10.50714 | 3807 ft | 162 kts | 230° |
| 2026-05-07 21:28 | 43.83380 | 10.49670 | 3740 ft | 160 kts | 203° |
| 2026-05-07 21:28 | 43.82333 | 10.49088 | 3605 ft | 166 kts | 202° |
| 2026-05-07 21:28 | 43.81265 | 10.48427 | 3207 ft | 169 kts | 203° |
| 2026-05-07 21:28 | 43.80201 | 10.47767 | 2783 ft | 166 kts | 204° |
| 2026-05-07 21:29 | 43.79190 | 10.47135 | 2557 ft | 156 kts | 204° |
| 2026-05-07 21:29 | 43.78196 | 10.46486 | 2308 ft | 158 kts | 205° |
| 2026-05-07 21:29 | 43.77200 | 10.45838 | 2083 ft | 159 kts | 204° |
| 2026-05-07 21:29 | 43.76189 | 10.45207 | 1809 ft | 161 kts | 204° |
| 2026-05-07 21:30 | 43.75179 | 10.44582 | 1514 ft | 156 kts | 204° |
| 2026-05-07 21:30 | 43.74192 | 10.43974 | 1299 ft | 155 kts | 205° |
| 2026-05-07 21:30 | 43.73208 | 10.43348 | 1082 ft | 156 kts | 205° |
| 2026-05-07 21:30 | 43.72212 | 10.42723 | 817 ft | 157 kts | 205° |
| 2026-05-07 21:31 | 43.71251 | 10.42079 | 555 ft | 155 kts | 207° |
| 2026-05-07 21:31 | 43.70325 | 10.41360 | 311 ft | 151 kts | 213° |
| 2026-05-07 21:31 | 43.69458 | 10.40539 | 95 ft | 150 kts | 217° |
| 2026-05-07 21:31 | 43.68636 | 10.39688 | 7 ft | 139 kts | 217° |
| 2026-05-07 21:32 | 43.68033 | 10.39065 | 6 ft | 77 kts | 217° |
| 2026-05-07 21:32 | 43.67826 | 10.38852 | 8 ft | 10 kts | 216° |
| 2026-05-07 21:32 | 43.67773 | 10.38798 | 8 ft | 9 kts | 216° |
| 2026-05-07 21:32 | 43.67721 | 10.38745 | 9 ft | 9 kts | 216° |
| 2026-05-07 21:33 | 43.67671 | 10.38693 | 9 ft | 9 kts | 217° |
| 2026-05-07 21:33 | 43.67613 | 10.38631 | 10 ft | 7 kts | 218° |
| 2026-05-07 21:33 | 43.67576 | 10.38593 | 10 ft | 7 kts | 217° |
| 2026-05-07 21:33 | 43.67552 | 10.38527 | 8 ft | 10 kts | 261° |
| 2026-05-07 21:34 | 43.67584 | 10.38444 | 9 ft | 10 kts | 305° |
| 2026-05-07 21:34 | 43.67626 | 10.38365 | 7 ft | 11 kts | 318° |
| 2026-05-07 21:34 | 43.67694 | 10.38388 | 9 ft | 10 kts | 33° |
| 2026-05-07 21:34 | 43.67754 | 10.38449 | 9 ft | 12 kts | 36° |
| 2026-05-07 21:35 | 43.67844 | 10.38540 | 8 ft | 19 kts | 36° |
| 2026-05-07 21:35 | 43.67948 | 10.38649 | 9 ft | 19 kts | 37° |
| 2026-05-07 21:35 | 43.68061 | 10.38766 | 7 ft | 24 kts | 37° |
| 2026-05-07 21:35 | 43.68193 | 10.38906 | 6 ft | 23 kts | 37° |
| 2026-05-07 21:36 | 43.68321 | 10.39034 | 6 ft | 22 kts | 35° |
| 2026-05-07 21:36 | 43.68445 | 10.39163 | 7 ft | 23 kts | 37° |
| 2026-05-07 21:36 | 43.68587 | 10.39311 | 8 ft | 25 kts | 36° |
| 2026-05-07 21:36 | 43.68724 | 10.39452 | 7 ft | 24 kts | 37° |
| 2026-05-07 21:37 | 43.68854 | 10.39586 | 6 ft | 24 kts | 37° |
| 2026-05-07 21:37 | 43.68984 | 10.39721 | 8 ft | 23 kts | 37° |
| 2026-05-07 21:37 | 43.69110 | 10.39851 | 8 ft | 22 kts | 37° |
| 2026-05-07 21:37 | 43.69232 | 10.39978 | 10 ft | 22 kts | 37° |
| 2026-05-07 21:38 | 43.69342 | 10.40084 | 10 ft | 16 kts | 18° |
| 2026-05-07 21:38 | 43.69450 | 10.40091 | 10 ft | 15 kts | 1° |
| 2026-05-07 21:38 | 43.69527 | 10.40078 | 10 ft | 8 kts | 352° |
| 2026-05-07 21:38 | 43.69586 | 10.40066 | 10 ft | 9 kts | 352° |
| 2026-05-07 21:39 | 43.69648 | 10.40053 | 10 ft | 9 kts | 344° |
| 2026-05-07 21:39 | 43.69704 | 10.40025 | 10 ft | 7 kts | 355° |
| 2026-05-07 21:39 | 43.69744 | 10.40031 | 10 ft | 0 kts | 9° |
| 2026-05-07 21:39 | 43.69745 | 10.40031 | 10 ft | 0 kts | 9° |